METAR Data
IDs: Format: Raw Decoded Include TAF

Data at: 0102 UTC 06 Dec 2019

KFYM 060055Z AUTO 00000KT 10SM FEW085 OVC120 12/00 A3012 RMK A01
KFYM 060035Z AUTO 00000KT 10SM BKN120 13/M00 A3011 RMK A01
KFYM 060015Z AUTO 17004KT 10SM SCT110 12/M00 A3010 RMK A01
KFYM 052355Z AUTO 00000KT 10SM SCT100 12/M01 A3010 RMK A01
KFYM 052335Z AUTO 00000KT 10SM CLR 12/M01 A3011 RMK A01
KFYM 052315Z AUTO 00000KT 10SM CLR 12/M01 A3010 RMK A01
KFYM 052255Z AUTO 00000KT 10SM CLR 12/M01 A3010 RMK A01
KFYM 052235Z AUTO 19003KT 10SM CLR 13/M01 A3010 RMK A01
KFYM 052215Z AUTO 21004KT 10SM CLR 15/M02 A3010 RMK A01
KFYM 052155Z AUTO 17003KT 10SM CLR 15/M01 A3009 RMK A01
KFYM 052135Z AUTO 21004KT 10SM CLR 16/M02 A3009 RMK A01
KFYM 052115Z AUTO 21004KT 10SM CLR 16/M02 A3010 RMK A01
KFYM 052055Z AUTO 23005KT 10SM CLR 16/M03 A3010 RMK A01
KFYM 052035Z AUTO 21005KT 10SM CLR 16/M02 A3010 RMK A01
KFYM 052015Z AUTO 18008KT 10SM CLR 16/M01 A3010 RMK A01
KFYM 051955Z AUTO 21005KT 10SM CLR 16/M00 A3010 RMK A01
KFYM 051935Z AUTO 22007KT 10SM CLR 16/M01 A3010 RMK A01
KFYM 051915Z AUTO 00000KT 10SM CLR 16/M01 A3011 RMK A01
KFYM 051855Z AUTO 17004KT 10SM CLR 15/M02 A3011 RMK A01
KFYM 051835Z AUTO VRB03KT 10SM CLR 15/M01 A3011 RMK A01
KFYM 051815Z AUTO 16006KT 10SM CLR 15/M00 A3012 RMK A01
KFYM 051755Z AUTO 14005KT 10SM CLR 15/M00 A3013 RMK A01
KFYM 051735Z AUTO 00000KT 10SM CLR 14/00 A3013 RMK A01
KFYM 051715Z AUTO 00000KT 10SM CLR 14/00 A3014 RMK A01
KFYM 051655Z AUTO 11004KT 10SM CLR 13/00 A3015 RMK A01
KFYM 051615Z AUTO 12006KT 10SM CLR 12/00 A3016 RMK A01
KFYM 051555Z AUTO VRB04KT 10SM CLR 12/01 A3016 RMK A01
KFYM 051535Z AUTO 00000KT 10SM CLR 11/01 A3016 RMK A01
KFYM 051515Z AUTO 00000KT 10SM CLR 10/01 A3016 RMK A01
KFYM 051455Z AUTO 00000KT 10SM CLR 09/01 A3015 RMK A01
KFYM 051435Z AUTO 24003KT 10SM CLR 08/01 A3015 RMK A01
KFYM 051415Z AUTO 00000KT 10SM CLR 07/02 A3014 RMK A01
KFYM 051355Z AUTO 00000KT 10SM CLR 05/01 A3013 RMK A01
KFYM 051335Z AUTO 00000KT 10SM CLR 04/01 A3012 RMK A01
KFYM 051315Z AUTO 00000KT 10SM CLR 03/01 A3011 RMK A01
KFYM 051255Z AUTO 26003KT 10SM CLR 03/01 A3010 RMK A01
KFYM 051235Z AUTO 00000KT 10SM CLR 04/01 A3009 RMK A01
KFYM 051215Z AUTO 00000KT 10SM CLR 03/00 A3008 RMK A01
KFYM 051155Z AUTO 07004KT 10SM CLR 04/00 A3007 RMK A01
KFYM 051135Z AUTO 05003KT 10SM CLR 03/00 A3007 RMK A01
KFYM 051115Z AUTO 00000KT 10SM CLR 04/M00 A3006 RMK A01
KFYM 051055Z AUTO 00000KT 10SM CLR 03/00 A3006 RMK A01
KFYM 051035Z AUTO 00000KT 10SM CLR 02/00 A3005 RMK A01
KFYM 051015Z AUTO 00000KT 10SM CLR 01/M00 A3005 RMK A01
KFYM 050955Z AUTO 00000KT 10SM CLR 02/M01 A3005 RMK A01
KFYM 050935Z AUTO 00000KT 10SM CLR 02/M01 A3004 RMK A01
KFYM 050915Z AUTO 00000KT 10SM CLR 02/M01 A3004 RMK A01
KFYM 050855Z AUTO 00000KT 10SM CLR 02/M01 A3004 RMK A01
KFYM 050835Z AUTO 09004KT 10SM CLR 02/M01 A3003 RMK A01
KFYM 050810Z AUTO 00000KT 10SM CLR 03/M01 A3004 RMK A01
KFYM 050755Z AUTO 00000KT 10SM CLR 03/M01 A3004 RMK A01
KFYM 050735Z AUTO 00000KT 10SM CLR 03/M01 A3003 RMK A01
KFYM 050715Z AUTO 00000KT 10SM CLR 04/M01 A3003 RMK A01
KFYM 050655Z AUTO 00000KT 10SM CLR 04/M01 A3002 RMK A01
KFYM 050615Z AUTO 00000KT 10SM CLR 04/M01 A3002 RMK A01
KFYM 050555Z AUTO 00000KT 10SM CLR 04/M01 A3003 RMK A01
KFYM 050535Z AUTO 00000KT 10SM CLR 05/M01 A3003 RMK A01
KFYM 050515Z AUTO 00000KT 10SM CLR 05/M01 A3003 RMK A01
KFYM 050455Z AUTO 00000KT 10SM CLR 05/M01 A3002 RMK A01
KFYM 050435Z AUTO 00000KT 10SM CLR 05/M01 A3003 RMK A01
KFYM 050415Z AUTO 26003KT 10SM CLR 06/M01 A3002 RMK A01
KFYM 050355Z AUTO 00000KT 10SM CLR 07/M01 A3001 RMK A01
KFYM 050335Z AUTO 28005KT 10SM CLR 06/M01 A3000 RMK A01
KFYM 050315Z AUTO 31003KT 10SM CLR 08/M01 A2999 RMK A01
KFYM 050255Z AUTO 00000KT 10SM CLR 08/M01 A2998 RMK A01
KFYM 050235Z AUTO 29004KT 10SM CLR 09/M01 A2998 RMK A01
KFYM 050215Z AUTO 28005KT 10SM CLR 08/M01 A2998 RMK A01
KFYM 050155Z AUTO 28004KT 10SM CLR 09/M01 A2997 RMK A01
KFYM 050135Z AUTO 00000KT 10SM CLR 09/M01 A2997 RMK A01
KFYM 050115Z AUTO 29003KT 10SM CLR 10/M02 A2997 RMK A01
KFYM 050055Z AUTO 28004KT 10SM CLR 10/M02 A2996 RMK A01
KFYM 050035Z AUTO 27004KT 10SM CLR 10/M02 A2997 RMK A01
KFYM 050015Z AUTO 27004KT 10SM CLR 10/M01 A2996 RMK A01
KFYM 042355Z AUTO 29003KT 10SM CLR 11/M02 A2996 RMK A01
KFYM 042335Z AUTO 28004KT 10SM CLR 11/M02 A2995 RMK A01
KFYM 042315Z AUTO 29004KT 10SM CLR 12/M02 A2995 RMK A01
KFYM 042255Z AUTO 29003KT 10SM CLR 12/M02 A2994 RMK A01
KFYM 042235Z AUTO 27006KT 10SM CLR 13/M01 A2994 RMK A01
KFYM 042215Z AUTO 26005KT 10SM CLR 12/M01 A2993 RMK A01
KFYM 042155Z AUTO 27004KT 10SM CLR 14/M01 A2992 RMK A01
KFYM 042135Z AUTO 27007KT 10SM CLR 15/M01 A2992 RMK A01
KFYM 042115Z AUTO 30005KT 10SM CLR 15/M02 A2992 RMK A01
KFYM 042055Z AUTO 31004KT 10SM CLR 15/M02 A2991 RMK A01
KFYM 042035Z AUTO 26007KT 10SM CLR 15/M01 A2990 RMK A01
KFYM 042015Z AUTO 30006KT 10SM CLR 15/M02 A2990 RMK A01
KFYM 041955Z AUTO VRB06G11KT 10SM CLR 15/M01 A2990 RMK A01
KFYM 041935Z AUTO VRB05G13KT 10SM CLR 15/M02 A2990 RMK A01
KFYM 041915Z AUTO 30007G13KT 10SM CLR 14/M01 A2990 RMK A01
KFYM 041855Z AUTO 29007G12KT 260V320 10SM CLR 14/M01 A2990 RMK A01
KFYM 041835Z AUTO VRB05G12KT 10SM CLR 14/00 A2990 RMK A01
KFYM 041815Z AUTO VRB06G13KT 10SM CLR 14/01 A2991 RMK A01
KFYM 041755Z AUTO 33009KT 10SM CLR 13/01 A2991 RMK A01
KFYM 041735Z AUTO 32007G13KT 290V350 10SM CLR 12/01 A2992 RMK A01
KFYM 041715Z AUTO 32005G11KT 10SM CLR 12/01 A2993 RMK A01
KFYM 041655Z AUTO VRB04KT 10SM CLR 11/02 A2994 RMK A01
KFYM 041635Z AUTO 26005KT 10SM CLR 11/02 A2995 RMK A01
KFYM 041615Z AUTO VRB04KT 10SM CLR 10/02 A2994 RMK A01
KFYM 041555Z AUTO 25004KT 10SM CLR 08/03 A2994 RMK A01
KFYM 041535Z AUTO VRB03KT 10SM CLR 07/03 A2994 RMK A01
KFYM 041515Z AUTO 25004KT 10SM CLR 06/02 A2994 RMK A01
KFYM 041455Z AUTO 27004KT 10SM CLR 05/02 A2994 RMK A01
KFYM 041435Z AUTO 25003KT 10SM CLR 04/02 A2993 RMK A01
KFYM 041415Z AUTO 00000KT 10SM CLR 03/01 A2992 RMK A01
KFYM 041355Z AUTO 00000KT 10SM CLR 01/01 A2992 RMK A01
KFYM 041335Z AUTO 00000KT 10SM CLR 00/M00 A2991 RMK A01
KFYM 041315Z AUTO 00000KT 10SM CLR M01/M01 A2992 RMK A01